createdAt,value
2023-04-02T00:00:34.401Z,19.39
2023-04-02T00:01:34.347Z,19.39
2023-04-02T00:02:34.457Z,19.39
2023-04-02T00:03:34.464Z,19.39
2023-04-02T00:04:34.673Z,19.38
2023-04-02T00:05:34.830Z,19.38
2023-04-02T00:06:34.288Z,19.38
2023-04-02T00:07:34.284Z,19.38
2023-04-02T00:08:34.292Z,19.37
2023-04-02T00:09:34.302Z,19.39
2023-04-02T00:10:34.510Z,19.35
2023-04-02T00:11:34.456Z,19.38
2023-04-02T00:12:34.221Z,19.37
2023-04-02T00:13:34.326Z,19.35
2023-04-02T00:14:34.234Z,19.35
2023-04-02T00:15:34.524Z,19.34
2023-04-02T00:16:34.264Z,19.35
2023-04-02T00:17:34.255Z,19.34
2023-04-02T00:18:34.158Z,19.35
2023-04-02T00:19:34.268Z,19.35
2023-04-02T00:20:34.070Z,19.34
2023-04-02T00:21:34.180Z,19.34
2023-04-02T00:22:34.415Z,19.32
2023-04-02T00:23:34.193Z,19.34
2023-04-02T00:24:34.099Z,19.34
2023-04-02T00:25:34.316Z,19.34
2023-04-02T00:26:34.221Z,19.34
2023-04-02T00:27:34.222Z,19.34
2023-04-02T00:28:34.331Z,19.32
2023-04-02T00:29:34.136Z,19.30
2023-04-02T00:30:34.044Z,19.32
2023-04-02T00:31:34.076Z,19.32
2023-04-02T00:32:33.983Z,19.30
2023-04-02T00:33:34.061Z,19.30
2023-04-02T00:34:34.274Z,19.30
2023-04-02T00:35:34.316Z,19.30
2023-04-02T00:37:27.207Z,19.32
2023-04-02T00:38:27.958Z,19.30
2023-04-02T00:39:27.966Z,19.29
2023-04-02T00:40:28.172Z,19.29
2023-04-02T00:41:27.972Z,19.30
2023-04-02T00:42:27.989Z,19.29
2023-04-02T00:43:27.938Z,19.30
2023-04-02T00:44:27.790Z,19.30
2023-04-02T00:45:27.897Z,19.29
2023-04-02T00:46:28.058Z,19.27
2023-04-02T00:47:27.923Z,19.29
2023-04-02T00:48:27.887Z,19.27
2023-04-02T00:49:27.825Z,19.29
2023-04-02T00:50:27.833Z,19.29
2023-04-02T00:51:27.842Z,19.27
2023-04-02T00:52:28.049Z,19.27
2023-04-02T00:53:27.856Z,19.27
2023-04-02T00:54:27.764Z,19.27
2023-04-02T00:55:27.766Z,19.27
2023-04-02T00:56:27.677Z,19.26
2023-04-02T00:57:27.810Z,19.27
2023-04-02T00:58:28.009Z,19.27
2023-04-02T00:59:27.796Z,19.26
2023-04-02T01:00:27.703Z,19.26
2023-04-02T01:01:27.841Z,19.26
2023-04-02T01:02:28.077Z,19.26
2023-04-02T01:03:27.790Z,19.24
2023-04-02T01:04:27.930Z,19.24
2023-04-02T01:05:27.731Z,19.24
2023-04-02T01:06:27.639Z,19.26
2023-04-02T01:07:27.645Z,19.24
2023-04-02T01:08:27.561Z,19.24
2023-04-02T01:09:27.766Z,19.24
2023-04-02T01:10:27.868Z,19.24
2023-04-02T01:11:27.670Z,19.23
2023-04-02T01:12:27.576Z,19.23
2023-04-02T01:13:27.582Z,19.23
2023-04-02T01:14:27.600Z,19.22
2023-04-02T01:15:27.596Z,19.23
2023-04-02T01:16:27.547Z,19.23
2023-04-02T01:17:27.520Z,19.20
2023-04-02T01:18:27.519Z,19.23
2023-04-02T01:19:27.532Z,19.22
2023-04-02T01:20:27.433Z,19.22
2023-04-02T01:21:27.538Z,19.20
2023-04-02T01:22:27.849Z,19.23
2023-04-02T01:23:27.551Z,19.23
2023-04-02T01:24:27.446Z,19.20
2023-04-02T01:25:27.563Z,19.22
2023-04-02T01:26:27.466Z,19.20
2023-04-02T01:27:27.476Z,19.22
2023-04-02T01:28:27.595Z,19.20
2023-04-02T01:29:27.389Z,19.20
2023-04-02T01:30:27.392Z,19.20
2023-04-02T01:31:27.516Z,19.22
2023-04-02T01:32:27.316Z,19.19
2023-04-02T01:33:27.413Z,19.20
2023-04-02T01:34:27.626Z,19.20
2023-04-02T01:35:27.530Z,19.20
2023-04-02T01:36:28.210Z,19.19
2023-04-02T01:37:36.047Z,19.19
2023-04-02T01:38:27.405Z,19.17
2023-04-02T01:39:27.361Z,19.19
2023-04-02T01:40:27.407Z,19.19
2023-04-02T01:41:27.166Z,19.19
2023-04-02T01:42:27.136Z,19.19
2023-04-02T01:43:27.121Z,19.19
2023-04-02T01:44:27.115Z,19.19
2023-04-02T01:45:27.097Z,19.19
2023-04-02T01:46:27.260Z,19.19
2023-04-02T01:47:27.102Z,19.19
2023-04-02T01:48:27.066Z,19.19
2023-04-02T01:49:27.054Z,19.19
2023-04-02T01:50:27.042Z,19.17
2023-04-02T01:51:27.034Z,19.17
2023-04-02T01:52:27.161Z,19.17
2023-04-02T01:53:27.022Z,19.17
2023-04-02T01:54:27.008Z,19.19
2023-04-02T01:55:26.992Z,19.17
2023-04-02T01:56:26.987Z,19.19
2023-04-02T01:57:27.009Z,19.19
2023-04-02T01:58:27.115Z,19.19
2023-04-02T01:59:26.954Z,19.17
2023-04-02T02:00:26.975Z,19.17
2023-04-02T02:01:26.936Z,19.17
2023-04-02T02:02:27.007Z,19.17
2023-04-02T02:03:26.909Z,19.19
2023-04-02T02:04:27.048Z,19.17
2023-04-02T02:05:26.893Z,19.19
2023-04-02T02:06:26.883Z,19.17
2023-04-02T02:07:26.867Z,19.16
2023-04-02T02:08:26.865Z,19.17
2023-04-02T02:09:26.845Z,19.19
2023-04-02T02:10:26.878Z,19.17
2023-04-02T02:11:26.835Z,19.17
2023-04-02T02:12:26.820Z,19.17
2023-04-02T02:13:26.803Z,19.19
2023-04-02T02:14:26.798Z,19.19
2023-04-02T02:15:26.790Z,19.17
2023-04-02T02:16:26.920Z,19.17
2023-04-02T02:17:26.799Z,19.19
2023-04-02T02:18:26.759Z,19.19
2023-04-02T02:19:26.739Z,19.19
2023-04-02T02:20:26.755Z,19.17
2023-04-02T02:21:26.736Z,19.19
2023-04-02T02:22:26.761Z,19.19
2023-04-02T02:23:26.720Z,19.19
2023-04-02T02:24:26.719Z,19.19
2023-04-02T02:25:26.689Z,19.17
2023-04-02T02:26:26.684Z,19.17
2023-04-02T02:27:26.672Z,19.17
2023-04-02T02:28:26.779Z,19.17
2023-04-02T02:29:26.651Z,19.17
2023-04-02T02:30:26.636Z,19.17
2023-04-02T02:31:26.637Z,19.19
2023-04-02T02:32:26.650Z,19.17
2023-04-02T02:33:26.613Z,19.17
2023-04-02T02:34:26.668Z,19.19
2023-04-02T02:35:26.579Z,19.17
2023-04-02T02:36:26.630Z,19.19
2023-04-02T02:37:33.931Z,19.19
2023-04-02T02:38:26.556Z,19.17
2023-04-02T02:39:26.550Z,19.17
2023-04-02T02:40:26.661Z,19.16
2023-04-02T02:41:26.562Z,19.17
2023-04-02T02:42:26.523Z,19.17
2023-04-02T02:43:26.501Z,19.19
2023-04-02T02:44:26.489Z,19.17
2023-04-02T02:45:26.482Z,19.16
2023-04-02T02:46:26.740Z,19.17
2023-04-02T02:47:26.518Z,19.16
2023-04-02T02:48:26.440Z,19.17
2023-04-02T02:49:26.441Z,19.17
2023-04-02T02:50:26.424Z,19.17
2023-04-02T02:51:26.415Z,19.17
2023-04-02T02:52:26.526Z,19.17
2023-04-02T02:53:26.404Z,19.16
2023-04-02T02:54:26.383Z,19.16
2023-04-02T02:55:26.373Z,19.15
2023-04-02T02:56:26.354Z,19.16
2023-04-02T02:57:26.421Z,19.16
2023-04-02T02:58:26.488Z,19.16
2023-04-02T02:59:26.353Z,19.16
2023-04-02T03:00:26.329Z,19.16
2023-04-02T03:01:26.345Z,19.16
2023-04-02T03:02:26.339Z,19.17
2023-04-02T03:03:26.521Z,19.16
2023-04-02T03:04:26.478Z,19.15
2023-04-02T03:05:26.268Z,19.16
2023-04-02T03:06:26.255Z,19.15
2023-04-02T03:07:26.242Z,19.15
2023-04-02T03:08:26.232Z,19.16
2023-04-02T03:09:26.226Z,19.17
2023-04-02T03:10:26.334Z,19.17
2023-04-02T03:11:26.200Z,19.15
2023-04-02T03:12:26.214Z,19.15
2023-04-02T03:13:26.237Z,19.16
2023-04-02T03:14:26.176Z,19.16
2023-04-02T03:15:26.209Z,19.16
2023-04-02T03:16:26.388Z,19.16
2023-04-02T03:17:26.190Z,19.16
2023-04-02T03:18:26.130Z,19.16
2023-04-02T03:19:26.123Z,19.16
2023-04-02T03:20:26.104Z,19.17
2023-04-02T03:21:26.104Z,19.16
2023-04-02T03:22:26.286Z,19.17
2023-04-02T03:23:26.089Z,19.12
2023-04-02T03:24:26.065Z,19.16
2023-04-02T03:25:26.067Z,19.15
2023-04-02T03:26:26.050Z,19.16
2023-04-02T03:27:26.044Z,19.15
2023-04-02T03:28:26.084Z,19.16
2023-04-02T03:29:26.021Z,19.15
2023-04-02T03:30:25.998Z,19.16
2023-04-02T03:31:26.029Z,19.16
2023-04-02T03:32:26.007Z,19.16
2023-04-02T03:33:25.995Z,19.15
2023-04-02T03:34:26.116Z,19.16
2023-04-02T03:35:25.986Z,19.12
2023-04-02T03:36:25.943Z,19.15
2023-04-02T03:37:32.931Z,19.12
2023-04-02T03:38:25.941Z,19.15
2023-04-02T03:39:25.918Z,19.15
2023-04-02T03:40:25.935Z,19.15
2023-04-02T03:41:25.894Z,19.15
2023-04-02T03:42:25.884Z,19.15
2023-04-02T03:43:25.880Z,19.12
2023-04-02T03:44:25.863Z,19.15
2023-04-02T03:45:25.863Z,19.12
2023-04-02T03:46:25.914Z,19.12
2023-04-02T03:47:25.844Z,19.11
2023-04-02T03:48:25.835Z,19.15
2023-04-02T03:49:25.822Z,19.15
2023-04-02T03:50:25.792Z,19.12
2023-04-02T03:51:25.788Z,19.12
2023-04-02T03:52:26.038Z,19.12
2023-04-02T03:53:25.774Z,19.12
2023-04-02T03:54:25.769Z,19.12
2023-04-02T03:55:25.753Z,19.11
2023-04-02T03:56:25.733Z,19.12
2023-04-02T03:57:25.811Z,19.12
2023-04-02T03:58:25.870Z,19.12
2023-04-02T03:59:25.711Z,19.11
2023-04-02T04:00:25.721Z,19.12
2023-04-02T04:01:25.720Z,19.12
2023-04-02T04:02:25.779Z,19.12
2023-04-02T04:03:25.669Z,19.11
2023-04-02T04:04:25.764Z,19.11
2023-04-02T04:05:25.653Z,19.11
2023-04-02T04:06:25.571Z,19.12
2023-04-02T04:07:25.637Z,19.12
2023-04-02T04:08:25.623Z,19.11
2023-04-02T04:09:25.601Z,19.12
2023-04-02T04:10:25.726Z,19.12
2023-04-02T04:11:25.574Z,19.11
2023-04-02T04:12:25.526Z,19.12
2023-04-02T04:13:25.518Z,19.12
2023-04-02T04:14:25.547Z,19.12
2023-04-02T04:15:25.544Z,19.12
2023-04-02T04:16:25.576Z,19.12
2023-04-02T04:17:25.531Z,19.11
2023-04-02T04:18:25.463Z,19.11
2023-04-02T04:19:25.448Z,19.11
2023-04-02T04:20:25.438Z,19.11
2023-04-02T04:21:25.428Z,19.12
2023-04-02T04:22:25.560Z,19.09
2023-04-02T04:23:25.461Z,19.11
2023-04-02T04:24:25.454Z,19.11
2023-04-02T04:25:25.413Z,19.12
2023-04-02T04:26:25.371Z,19.11
2023-04-02T04:27:25.362Z,19.12
2023-04-02T04:28:25.502Z,19.12
2023-04-02T04:29:25.340Z,19.11
2023-04-02T04:30:25.329Z,19.12
2023-04-02T04:31:25.979Z,19.12
2023-04-02T04:32:25.320Z,19.12
2023-04-02T04:33:25.376Z,19.11
2023-04-02T04:34:25.441Z,19.12
2023-04-02T04:35:25.280Z,19.12
2023-04-02T04:36:25.268Z,19.12
2023-04-02T04:37:25.305Z,19.15
2023-04-02T04:38:25.249Z,19.12
2023-04-02T04:39:25.237Z,19.12
2023-04-02T04:40:25.376Z,19.15
2023-04-02T04:41:25.225Z,19.12
2023-04-02T04:42:25.210Z,19.15
2023-04-02T04:43:25.197Z,19.15
2023-04-02T04:44:25.186Z,19.12
2023-04-02T04:45:25.205Z,19.15
2023-04-02T04:46:25.468Z,19.12
2023-04-02T04:47:25.166Z,19.12
2023-04-02T04:48:25.140Z,19.15
2023-04-02T04:49:25.143Z,19.12
2023-04-02T04:50:25.131Z,19.15
2023-04-02T04:51:25.131Z,19.15
2023-04-02T04:52:25.362Z,19.12
2023-04-02T04:53:25.089Z,19.12
2023-04-02T04:54:25.086Z,19.12
2023-04-02T04:55:25.080Z,19.15
2023-04-02T04:56:25.081Z,19.12
2023-04-02T04:57:25.105Z,19.12
2023-04-02T04:58:25.083Z,19.12
2023-04-02T04:59:25.039Z,19.12
2023-04-02T05:00:25.043Z,19.15
2023-04-02T05:01:25.070Z,19.12
2023-04-02T05:02:25.057Z,19.15
2023-04-02T05:03:24.996Z,19.15
2023-04-02T05:04:25.162Z,19.12
2023-04-02T05:05:24.978Z,19.15
2023-04-02T05:06:24.978Z,19.12
2023-04-02T05:07:24.961Z,19.12
2023-04-02T05:08:24.942Z,19.12
2023-04-02T05:09:24.934Z,19.16
2023-04-02T05:10:25.070Z,19.12
2023-04-02T05:11:24.913Z,19.15
2023-04-02T05:12:24.911Z,19.15
2023-04-02T05:13:24.889Z,19.12
2023-04-02T05:14:24.873Z,19.12
2023-04-02T05:15:24.876Z,19.15
2023-04-02T05:16:25.033Z,19.15
2023-04-02T05:17:24.889Z,19.15
2023-04-02T05:18:24.851Z,19.15
2023-04-02T05:19:24.848Z,19.15
2023-04-02T05:20:24.821Z,19.15
2023-04-02T05:21:24.818Z,19.12
2023-04-02T05:22:24.943Z,19.16
2023-04-02T05:23:24.782Z,19.15
2023-04-02T05:24:24.770Z,19.15
2023-04-02T05:25:24.773Z,19.15
2023-04-02T05:26:24.770Z,19.15
2023-04-02T05:27:24.755Z,19.15
2023-04-02T05:28:24.859Z,19.15
2023-04-02T05:29:24.732Z,19.16
2023-04-02T05:30:24.708Z,19.16
2023-04-02T05:31:24.724Z,19.15
2023-04-02T05:32:24.721Z,19.16
2023-04-02T05:33:24.706Z,19.15
2023-04-02T05:34:24.733Z,19.16
2023-04-02T05:35:24.720Z,19.17
2023-04-02T05:36:24.749Z,19.17
2023-04-02T05:37:24.650Z,19.19
2023-04-02T05:38:24.631Z,19.19
2023-04-02T05:39:24.627Z,19.19
2023-04-02T05:40:24.635Z,19.20
2023-04-02T05:41:24.606Z,19.19
2023-04-02T05:42:24.600Z,19.22
2023-04-02T05:43:24.586Z,19.22
2023-04-02T05:44:24.564Z,19.22
2023-04-02T05:45:24.577Z,19.22
2023-04-02T05:46:24.683Z,19.23
2023-04-02T05:47:24.550Z,19.23
2023-04-02T05:48:24.536Z,19.24
2023-04-02T05:49:24.523Z,19.24
2023-04-02T05:50:24.520Z,19.27
2023-04-02T05:51:24.505Z,19.26
2023-04-02T05:52:24.629Z,19.27
2023-04-02T05:53:24.485Z,19.29
2023-04-02T05:54:24.484Z,19.30
2023-04-02T05:55:24.473Z,19.30
2023-04-02T05:56:24.473Z,19.32
2023-04-02T05:57:35.768Z,19.32
2023-04-02T05:58:35.388Z,19.34
2023-04-02T05:59:24.455Z,19.35
2023-04-02T06:00:24.409Z,19.35
2023-04-02T06:01:24.404Z,19.37
2023-04-02T06:02:24.508Z,19.37
2023-04-02T06:03:24.447Z,19.37
2023-04-02T06:04:24.407Z,19.39
2023-04-02T06:05:24.360Z,19.39
2023-04-02T06:06:24.346Z,19.39
2023-04-02T06:07:24.362Z,19.41
2023-04-02T06:08:24.319Z,19.41
2023-04-02T06:09:24.384Z,19.42
2023-04-02T06:10:25.002Z,19.44
2023-04-02T06:11:24.322Z,19.44
2023-04-02T06:12:24.290Z,19.45
2023-04-02T06:13:24.281Z,19.48
2023-04-02T06:14:24.298Z,19.49
2023-04-02T06:15:24.249Z,19.49
2023-04-02T06:16:24.415Z,19.52
2023-04-02T06:17:24.292Z,19.52
2023-04-02T06:18:24.221Z,19.53
2023-04-02T06:19:24.229Z,19.55
2023-04-02T06:20:24.212Z,19.57
2023-04-02T06:21:24.192Z,19.59
2023-04-02T06:22:24.249Z,19.60
2023-04-02T06:23:24.174Z,19.62
2023-04-02T06:24:24.188Z,19.64
2023-04-02T06:25:24.168Z,19.67
2023-04-02T06:26:24.145Z,19.67
2023-04-02T06:27:24.135Z,19.74
2023-04-02T06:28:24.294Z,19.77
2023-04-02T06:29:24.147Z,19.81
2023-04-02T06:30:24.102Z,19.85
2023-04-02T06:31:24.142Z,19.94
2023-04-02T06:32:24.113Z,20.07
2023-04-02T06:33:24.057Z,20.24
2023-04-02T06:34:24.113Z,20.48
2023-04-02T06:35:24.045Z,20.78
2023-04-02T06:36:24.067Z,21.19
2023-04-02T06:37:31.572Z,21.68
2023-04-02T06:38:24.013Z,22.14
2023-04-02T06:39:24.023Z,22.55
2023-04-02T06:40:24.037Z,22.80
2023-04-02T06:41:24.007Z,23.10
2023-04-02T06:42:23.978Z,23.37
2023-04-02T06:43:23.962Z,23.58
2023-04-02T06:44:24.035Z,23.71
2023-04-02T06:45:23.952Z,23.81
2023-04-02T06:46:24.093Z,23.81
2023-04-02T06:47:23.946Z,23.71
2023-04-02T06:48:23.925Z,23.55
2023-04-02T06:49:23.903Z,23.34
2023-04-02T06:50:23.905Z,23.16
2023-04-02T06:51:23.893Z,22.99
2023-04-02T06:52:24.026Z,22.89
2023-04-02T06:53:23.857Z,22.80
2023-04-02T06:54:23.861Z,22.71
2023-04-02T06:55:23.890Z,22.65
2023-04-02T06:56:23.850Z,22.65
2023-04-02T06:57:23.923Z,22.77
2023-04-02T06:58:23.966Z,22.96
2023-04-02T06:59:23.802Z,23.21
2023-04-02T07:00:23.798Z,23.48
2023-04-02T07:01:23.831Z,23.76
2023-04-02T07:02:23.770Z,23.99
2023-04-02T07:03:23.748Z,24.14
2023-04-02T07:04:23.897Z,24.28
2023-04-02T07:05:23.736Z,24.40
2023-04-02T07:06:23.734Z,24.51
2023-04-02T07:07:23.712Z,24.62
2023-04-02T07:08:23.779Z,24.71
2023-04-02T07:09:23.693Z,24.82
2023-04-02T07:10:23.717Z,24.86
2023-04-02T07:11:23.681Z,24.85
2023-04-02T07:12:23.684Z,24.82
2023-04-02T07:13:23.678Z,24.71
2023-04-02T07:14:23.655Z,24.58
2023-04-02T07:15:23.631Z,24.37
2023-04-02T07:16:23.787Z,24.14
2023-04-02T07:17:23.633Z,23.92
2023-04-02T07:18:23.609Z,23.76
2023-04-02T07:19:23.589Z,23.67
2023-04-02T07:20:23.590Z,23.64
2023-04-02T07:21:23.621Z,23.69
2023-04-02T07:22:23.626Z,23.79
2023-04-02T07:23:23.541Z,23.96
2023-04-02T07:24:23.545Z,24.16
2023-04-02T07:25:23.527Z,24.41
2023-04-02T07:26:23.518Z,24.71
2023-04-02T07:27:23.519Z,25.03
2023-04-02T07:28:23.696Z,25.30
2023-04-02T07:29:23.484Z,25.51
2023-04-02T07:30:23.477Z,25.73
2023-04-02T07:31:23.482Z,25.89
2023-04-02T07:32:23.453Z,26.03
2023-04-02T07:33:23.454Z,26.16
2023-04-02T07:34:23.479Z,26.29
2023-04-02T07:35:23.435Z,26.39
2023-04-02T07:36:24.411Z,26.45
2023-04-02T07:37:23.406Z,26.49
2023-04-02T07:38:23.389Z,26.48
2023-04-02T07:39:23.380Z,26.39
2023-04-02T07:40:23.426Z,26.19
2023-04-02T07:41:23.360Z,25.98
2023-04-02T07:42:23.353Z,25.71
2023-04-02T07:43:23.340Z,25.46
2023-04-02T07:44:23.337Z,25.14
2023-04-02T07:45:23.318Z,24.82
2023-04-02T07:46:23.478Z,24.55
2023-04-02T07:47:23.295Z,24.29
2023-04-02T07:48:23.303Z,24.09
2023-04-02T07:49:23.285Z,23.91
2023-04-02T07:50:23.332Z,23.74
2023-04-02T07:51:23.261Z,23.59
2023-04-02T07:52:23.422Z,23.45
2023-04-02T07:53:23.255Z,23.29
2023-04-02T07:54:23.256Z,23.17
2023-04-02T07:55:23.211Z,23.04
2023-04-02T07:56:23.213Z,22.92
2023-04-02T07:57:23.232Z,22.80
2023-04-02T07:58:23.403Z,22.70
2023-04-02T07:59:23.179Z,22.58
2023-04-02T08:00:23.170Z,22.47
2023-04-02T08:01:23.158Z,22.38
2023-04-02T08:02:23.248Z,22.30
2023-04-02T08:03:23.199Z,22.22
2023-04-02T08:04:23.422Z,22.12
2023-04-02T08:05:23.137Z,22.04
2023-04-02T08:06:23.107Z,21.99
2023-04-02T08:07:23.099Z,21.89
2023-04-02T08:08:23.104Z,21.85
2023-04-02T08:09:23.078Z,21.80
2023-04-02T08:10:23.117Z,21.74
2023-04-02T08:11:23.087Z,21.69
2023-04-02T08:12:23.062Z,21.65
2023-04-02T08:13:23.051Z,21.60
2023-04-02T08:14:23.022Z,21.56
2023-04-02T08:15:23.015Z,21.51
2023-04-02T08:16:23.225Z,21.48
2023-04-02T08:17:23.005Z,21.45
2023-04-02T08:18:22.991Z,21.43
2023-04-02T08:19:22.990Z,21.38
2023-04-02T08:20:22.968Z,21.35
2023-04-02T08:21:22.957Z,21.30
2023-04-02T08:22:22.992Z,21.28
2023-04-02T08:23:22.947Z,21.26
2023-04-02T08:24:22.942Z,21.23
2023-04-02T08:25:22.932Z,21.22
2023-04-02T08:26:22.906Z,21.17
2023-04-02T08:27:22.890Z,21.19
2023-04-02T08:28:23.052Z,21.17
2023-04-02T08:29:22.886Z,21.13
2023-04-02T08:30:22.868Z,21.13
2023-04-02T08:31:22.904Z,21.10
2023-04-02T08:32:22.848Z,21.10
2023-04-02T08:33:22.844Z,21.04
2023-04-02T08:34:22.858Z,21.04
2023-04-02T08:35:22.825Z,21.03
2023-04-02T08:36:22.859Z,21.01
2023-04-02T08:37:22.786Z,21.00
2023-04-02T08:38:22.804Z,20.98
2023-04-02T08:39:22.772Z,20.98
2023-04-02T08:40:22.920Z,20.96
2023-04-02T08:41:22.750Z,20.96
2023-04-02T08:42:22.790Z,20.93
2023-04-02T08:43:23.757Z,20.92
2023-04-02T08:44:22.766Z,20.90
2023-04-02T08:45:24.888Z,20.89
2023-04-02T08:46:23.068Z,20.88
2023-04-02T08:47:22.698Z,20.86
2023-04-02T08:48:22.700Z,20.83
2023-04-02T08:49:22.671Z,20.82
2023-04-02T08:50:22.654Z,20.78
2023-04-02T08:51:22.675Z,20.77
2023-04-02T08:52:22.794Z,20.74
2023-04-02T08:53:22.642Z,20.74
2023-04-02T08:54:22.632Z,20.73
2023-04-02T08:55:22.610Z,20.71
2023-04-02T08:56:22.598Z,20.70
2023-04-02T08:57:22.621Z,20.70
2023-04-02T08:58:22.746Z,20.67
2023-04-02T08:59:22.563Z,20.67
2023-04-02T09:00:22.556Z,20.66
2023-04-02T09:01:22.599Z,20.63
2023-04-02T09:02:22.590Z,20.60
2023-04-02T09:03:22.524Z,20.59
2023-04-02T09:04:22.619Z,20.59
2023-04-02T09:05:22.492Z,20.56
2023-04-02T09:06:22.494Z,20.55
2023-04-02T09:07:22.489Z,20.55
2023-04-02T09:08:22.478Z,20.53
2023-04-02T09:09:22.460Z,20.50
2023-04-02T09:10:22.769Z,20.49
2023-04-02T09:11:22.438Z,20.49
2023-04-02T09:12:22.438Z,20.46
2023-04-02T09:13:22.417Z,20.44
2023-04-02T09:14:22.407Z,20.44
2023-04-02T09:15:22.631Z,20.42
2023-04-02T09:16:22.672Z,20.40
2023-04-02T09:17:22.385Z,20.42
2023-04-02T09:18:22.402Z,20.40
2023-04-02T09:19:22.352Z,20.37
2023-04-02T09:20:22.369Z,20.39
2023-04-02T09:21:22.362Z,20.37
2023-04-02T09:22:22.458Z,20.39
2023-04-02T09:23:22.320Z,20.39
2023-04-02T09:24:28.847Z,20.40
2023-04-02T09:25:22.317Z,20.40
2023-04-02T09:26:22.290Z,20.40
2023-04-02T09:27:23.937Z,20.40
2023-04-02T09:28:22.412Z,20.42
2023-04-02T09:29:22.267Z,20.44
2023-04-02T09:30:22.255Z,20.44
2023-04-02T09:31:22.323Z,20.44
2023-04-02T09:32:22.230Z,20.44
2023-04-02T09:33:22.214Z,20.44
2023-04-02T09:34:22.349Z,20.44
2023-04-02T09:35:26.221Z,20.46
2023-04-02T09:36:22.291Z,20.46
2023-04-02T09:37:29.533Z,20.46
2023-04-02T09:38:29.344Z,20.44
2023-04-02T09:39:22.150Z,20.48
2023-04-02T09:40:22.322Z,20.48
2023-04-02T09:41:22.176Z,20.48
2023-04-02T09:42:29.566Z,20.48
2023-04-02T09:43:28.706Z,20.48
2023-04-02T09:44:22.105Z,20.48
2023-04-02T09:45:22.088Z,20.48
2023-04-02T09:46:22.621Z,20.48
2023-04-02T09:47:22.109Z,20.49
2023-04-02T09:48:22.069Z,20.48
2023-04-02T09:49:22.074Z,20.48
2023-04-02T09:50:22.079Z,20.48
2023-04-02T09:51:22.040Z,20.48
2023-04-02T09:52:22.170Z,20.48
2023-04-02T09:53:22.011Z,20.48
2023-04-02T09:54:22.018Z,20.46
2023-04-02T09:55:22.015Z,20.48
2023-04-02T09:56:22.008Z,20.46
2023-04-02T09:57:22.014Z,20.48
2023-04-02T09:58:22.107Z,20.48
2023-04-02T09:59:22.049Z,20.46
2023-04-02T10:00:31.514Z,20.48
2023-04-02T10:01:21.985Z,20.48
2023-04-02T10:02:21.921Z,20.48
2023-04-02T10:03:21.929Z,20.48
2023-04-02T10:04:23.408Z,20.44
2023-04-02T10:05:39.016Z,20.48
2023-04-02T10:06:21.874Z,20.48
2023-04-02T10:07:21.867Z,20.48
2023-04-02T10:08:21.850Z,20.46
2023-04-02T10:09:21.851Z,20.44
2023-04-02T10:10:22.436Z,20.42
2023-04-02T10:11:21.821Z,20.40
2023-04-02T10:12:21.824Z,20.42
2023-04-02T10:13:21.885Z,20.40
2023-04-02T10:14:21.807Z,20.40
2023-04-02T10:15:21.770Z,20.40
2023-04-02T10:16:23.389Z,20.39
2023-04-02T10:17:21.974Z,20.37
2023-04-02T10:18:21.753Z,20.37
2023-04-02T10:19:21.744Z,20.37
2023-04-02T10:20:21.743Z,20.36
2023-04-02T10:21:21.725Z,20.36
2023-04-02T10:22:21.765Z,20.34
2023-04-02T10:23:21.700Z,20.37
2023-04-02T10:24:21.691Z,20.33
2023-04-02T10:25:21.689Z,20.34
2023-04-02T10:26:21.662Z,20.34
2023-04-02T10:27:21.660Z,20.32
2023-04-02T10:28:21.786Z,20.33
2023-04-02T10:29:21.648Z,20.33
2023-04-02T10:30:21.616Z,20.33
2023-04-02T10:31:21.716Z,20.32
2023-04-02T10:32:21.613Z,20.30
2023-04-02T10:33:21.606Z,20.29
2023-04-02T10:34:21.604Z,20.32
2023-04-02T10:35:21.584Z,20.32
2023-04-02T10:36:21.575Z,20.32
2023-04-02T10:37:28.598Z,20.32
2023-04-02T10:38:21.544Z,20.33
2023-04-02T10:39:21.559Z,20.36
2023-04-02T10:40:21.566Z,20.34
2023-04-02T10:41:21.537Z,20.36
2023-04-02T10:42:21.535Z,20.37
2023-04-02T10:43:21.496Z,20.37
2023-04-02T10:44:21.480Z,20.37
2023-04-02T10:45:21.491Z,20.36
2023-04-02T10:46:24.496Z,20.39
2023-04-02T10:47:21.456Z,20.39
2023-04-02T10:48:21.468Z,20.39
2023-04-02T10:49:21.458Z,20.39
2023-04-02T10:50:21.425Z,20.39
2023-04-02T10:51:21.416Z,20.40
2023-04-02T10:52:21.450Z,20.39
2023-04-02T10:53:21.414Z,20.40
2023-04-02T10:54:21.374Z,20.37
2023-04-02T10:55:21.388Z,20.33
2023-04-02T10:56:21.366Z,20.26
2023-04-02T10:57:21.398Z,20.12
2023-04-02T10:58:21.473Z,20.02
2023-04-02T10:59:21.335Z,19.87
2023-04-02T11:00:21.311Z,19.71
2023-04-02T11:01:21.349Z,19.57
2023-04-02T11:02:21.313Z,19.42
2023-04-02T11:03:21.377Z,19.29
2023-04-02T11:04:21.323Z,19.17
2023-04-02T11:05:21.280Z,19.04
2023-04-02T11:06:21.274Z,18.88
2023-04-02T11:07:21.258Z,18.73
2023-04-02T11:08:21.247Z,18.60
2023-04-02T11:09:21.231Z,18.45
2023-04-02T11:10:21.241Z,18.34
2023-04-02T11:11:21.209Z,18.24
2023-04-02T11:12:21.185Z,18.11
2023-04-02T11:13:21.197Z,18.00
2023-04-02T11:14:21.180Z,17.94
2023-04-02T11:15:21.174Z,17.88
2023-04-02T11:16:21.328Z,17.86
2023-04-02T11:17:21.221Z,17.87
2023-04-02T11:18:21.165Z,17.87
2023-04-02T11:19:21.129Z,17.90
2023-04-02T11:20:21.117Z,17.93
2023-04-02T11:21:21.098Z,17.98
2023-04-02T11:22:21.215Z,18.03
2023-04-02T11:23:21.095Z,18.09
2023-04-02T11:24:21.063Z,18.13
2023-04-02T11:25:21.074Z,18.21
2023-04-02T11:26:21.070Z,18.24
2023-04-02T11:27:21.046Z,18.28
2023-04-02T11:28:21.506Z,18.34
2023-04-02T11:29:21.075Z,18.41
2023-04-02T11:30:21.008Z,18.45
2023-04-02T11:31:21.032Z,18.48
2023-04-02T11:32:20.995Z,18.52
2023-04-02T11:33:29.994Z,18.57
2023-04-02T11:34:21.015Z,18.63
2023-04-02T11:35:20.961Z,18.67
2023-04-02T11:36:20.985Z,18.70
2023-04-02T11:37:20.947Z,18.76
2023-04-02T11:38:20.930Z,18.79
2023-04-02T11:39:20.912Z,18.81
2023-04-02T11:40:21.056Z,18.85
2023-04-02T11:41:20.898Z,18.91
2023-04-02T11:42:20.933Z,18.94
2023-04-02T11:43:20.936Z,18.97
2023-04-02T11:44:20.865Z,19.00
2023-04-02T11:45:21.167Z,19.04
2023-04-02T11:46:20.929Z,19.07
2023-04-02T11:47:20.931Z,19.09
2023-04-02T11:48:20.818Z,19.12
2023-04-02T11:49:20.812Z,19.16
2023-04-02T11:50:20.798Z,19.17
2023-04-02T11:51:21.319Z,19.20
2023-04-02T11:52:20.912Z,19.23
2023-04-02T11:53:20.780Z,19.24
2023-04-02T11:54:20.760Z,19.26
2023-04-02T11:55:20.901Z,19.29
2023-04-02T11:56:20.735Z,19.30
2023-04-02T11:57:21.575Z,19.34
2023-04-02T11:58:20.843Z,19.35
2023-04-02T11:59:20.796Z,19.38
2023-04-02T12:00:20.936Z,19.39
2023-04-02T12:01:20.893Z,19.41
2023-04-02T12:02:20.697Z,19.42
2023-04-02T12:03:22.015Z,19.44
2023-04-02T12:04:21.129Z,19.45
2023-04-02T12:05:20.709Z,19.47
2023-04-02T12:06:20.623Z,19.48
2023-04-02T12:07:20.620Z,19.49
2023-04-02T12:08:20.625Z,19.53
2023-04-02T12:09:20.876Z,19.55
2023-04-02T12:10:20.758Z,19.59
2023-04-02T12:11:20.580Z,19.57
2023-04-02T12:12:20.899Z,19.59
2023-04-02T12:13:20.964Z,19.60
2023-04-02T12:14:20.559Z,19.62
2023-04-02T12:15:20.562Z,19.62
2023-04-02T12:16:20.703Z,19.63
2023-04-02T12:17:20.527Z,19.64
2023-04-02T12:18:20.497Z,19.64
2023-04-02T12:19:20.515Z,19.67
2023-04-02T12:20:20.506Z,19.70
2023-04-02T12:21:20.487Z,19.70
2023-04-02T12:22:20.532Z,19.71
2023-04-02T12:23:20.460Z,19.71
2023-04-02T12:24:20.443Z,19.72
2023-04-02T12:25:20.430Z,19.74
2023-04-02T12:26:22.584Z,19.75
2023-04-02T12:27:20.407Z,19.75
2023-04-02T12:28:20.542Z,19.77
2023-04-02T12:29:20.404Z,19.77
2023-04-02T12:30:20.387Z,19.77
2023-04-02T12:31:20.380Z,19.79
2023-04-02T12:32:20.343Z,19.79
2023-04-02T12:33:20.402Z,19.81
2023-04-02T12:34:20.368Z,19.81
2023-04-02T12:35:20.333Z,19.79
2023-04-02T12:36:20.361Z,19.81
2023-04-02T12:37:20.308Z,19.82
2023-04-02T12:38:20.289Z,19.84
2023-04-02T12:39:20.281Z,19.82
2023-04-02T12:40:20.436Z,19.85
2023-04-02T12:41:20.272Z,19.84
2023-04-02T12:42:20.264Z,19.89
2023-04-02T12:43:20.252Z,19.87
2023-04-02T12:44:20.227Z,19.89
2023-04-02T12:45:20.219Z,19.87
2023-04-02T12:46:20.262Z,19.89
2023-04-02T12:47:20.204Z,19.90
2023-04-02T12:48:20.182Z,19.90
2023-04-02T12:49:20.201Z,19.90
2023-04-02T12:50:20.173Z,19.93
2023-04-02T12:51:20.161Z,19.92
2023-04-02T12:52:20.181Z,19.93
2023-04-02T12:53:20.158Z,19.93